createdAt,value
2023-05-12T00:01:15.902Z,7.60
2023-05-12T00:03:45.653Z,7.50
2023-05-12T00:06:13.780Z,7.03
2023-05-12T00:08:41.950Z,8.57
2023-05-12T00:11:10.210Z,7.72
2023-05-12T00:13:38.450Z,7.15
2023-05-12T00:16:07.074Z,7.07
2023-05-12T00:18:35.458Z,7.45
2023-05-12T00:21:05.060Z,7.13
2023-05-12T00:23:33.334Z,7.13
2023-05-12T00:26:01.219Z,7.47
2023-05-12T00:28:29.364Z,8.30
2023-05-12T00:30:57.906Z,7.35
2023-05-12T00:33:26.084Z,7.50
2023-05-12T00:35:53.954Z,7.78
2023-05-12T00:38:23.601Z,7.72
2023-05-12T00:40:51.509Z,7.32
2023-05-12T00:43:19.625Z,7.78
2023-05-12T00:45:47.826Z,7.65
2023-05-12T00:48:16.260Z,8.50
2023-05-12T00:50:44.175Z,7.90
2023-05-12T00:53:13.468Z,9.15
2023-05-12T00:55:42.980Z,9.27
2023-05-12T00:58:11.119Z,8.90
2023-05-12T01:03:29.687Z,8.27
2023-05-12T01:06:11.259Z,8.35
2023-05-12T01:08:41.254Z,8.80
2023-05-12T01:11:10.769Z,9.05
2023-05-12T01:13:39.418Z,9.45
2023-05-12T01:16:08.983Z,9.68
2023-05-12T01:18:38.107Z,10.13
2023-05-12T01:21:06.835Z,9.82
2023-05-12T01:23:37.387Z,9.20
2023-05-12T01:26:08.085Z,7.90
2023-05-12T01:28:36.642Z,8.73
2023-05-12T01:31:05.449Z,8.10
2023-05-12T01:33:34.232Z,8.38
2023-05-12T01:36:02.369Z,7.85
2023-05-12T01:38:30.278Z,8.27
2023-05-12T01:40:58.437Z,8.32
2023-05-12T01:43:27.745Z,7.75
2023-05-12T01:45:56.188Z,9.32
2023-05-12T01:48:24.277Z,7.97
2023-05-12T01:50:52.428Z,8.88
2023-05-12T01:53:20.324Z,8.20
2023-05-12T01:55:48.485Z,7.70
2023-05-12T01:58:16.402Z,8.10
2023-05-12T02:00:45.914Z,8.70
2023-05-12T02:03:13.922Z,9.27
2023-05-12T02:05:42.374Z,8.35
2023-05-12T02:08:10.486Z,8.15
2023-05-12T02:10:38.653Z,9.20
2023-05-12T02:13:06.999Z,9.13
2023-05-12T02:15:35.106Z,8.07
2023-05-12T02:18:04.582Z,8.45
2023-05-12T02:20:32.763Z,8.82
2023-05-12T02:23:00.910Z,9.35
2023-05-12T02:25:29.070Z,8.98
2023-05-12T02:27:57.129Z,9.55
2023-05-12T02:30:25.566Z,9.80
2023-05-12T02:32:53.506Z,9.52
2023-05-12T02:35:23.312Z,9.82
2023-05-12T02:37:51.362Z,10.38
2023-05-12T02:40:19.804Z,10.68
2023-05-12T02:42:47.905Z,12.77
2023-05-12T02:45:16.433Z,11.95
2023-05-12T02:47:44.329Z,12.07
2023-05-12T02:50:12.698Z,11.25
2023-05-12T02:52:41.906Z,11.32
2023-05-12T02:55:10.393Z,10.63
2023-05-12T02:57:38.299Z,10.93
2023-05-12T03:00:07.838Z,11.40
2023-05-12T03:02:36.302Z,9.52
2023-05-12T03:05:05.034Z,9.38
2023-05-12T03:07:33.479Z,9.82
2023-05-12T03:10:02.921Z,9.07
2023-05-12T03:12:30.840Z,8.77
2023-05-12T03:14:59.111Z,9.80
2023-05-12T03:17:27.220Z,9.93
2023-05-12T03:19:55.545Z,9.13
2023-05-12T03:22:23.596Z,8.82
2023-05-12T03:24:51.829Z,9.60
2023-05-12T03:27:21.102Z,8.88
2023-05-12T03:29:49.206Z,8.60
2023-05-12T03:32:17.069Z,7.90
2023-05-12T03:34:45.209Z,8.70
2023-05-12T03:37:13.144Z,8.20
2023-05-12T03:39:41.549Z,8.55
2023-05-12T03:42:09.468Z,8.40
2023-05-12T03:44:38.970Z,8.05
2023-05-12T03:47:07.983Z,8.25
2023-05-12T03:49:36.170Z,8.40
2023-05-12T03:52:04.101Z,8.68
2023-05-12T03:54:32.248Z,8.80
2023-05-12T03:57:00.146Z,8.75
2023-05-12T03:59:28.257Z,9.10
2023-05-12T04:01:57.545Z,8.43
2023-05-12T04:04:25.788Z,8.38
2023-05-12T04:06:53.652Z,8.30
2023-05-12T04:09:22.213Z,8.23
2023-05-12T04:11:50.192Z,8.23
2023-05-12T04:14:20.482Z,8.20
2023-05-12T04:16:54.628Z,8.38
2023-05-12T04:19:24.080Z,8.43
2023-05-12T04:21:51.926Z,8.82
2023-05-12T04:24:20.139Z,9.25
2023-05-12T04:26:48.028Z,8.73
2023-05-12T04:29:16.285Z,9.05
2023-05-12T04:31:44.194Z,8.73
2023-05-12T04:34:12.356Z,8.75
2023-05-12T04:36:41.581Z,8.45
2023-05-12T04:39:09.788Z,8.35
2023-05-12T04:41:37.636Z,8.38
2023-05-12T04:44:06.573Z,8.20
2023-05-12T04:46:34.484Z,7.72
2023-05-12T04:49:02.753Z,8.20
2023-05-12T04:51:31.905Z,8.00
2023-05-12T04:54:01.363Z,8.55
2023-05-12T04:56:29.235Z,7.90
2023-05-12T04:58:57.436Z,9.15
2023-05-12T05:01:25.367Z,8.57
2023-05-12T05:03:53.794Z,7.82
2023-05-12T05:06:21.916Z,7.90
2023-05-12T05:08:50.239Z,7.70
2023-05-12T05:11:19.466Z,7.28
2023-05-12T05:13:47.622Z,7.47
2023-05-12T05:16:15.547Z,7.55
2023-05-12T05:18:46.483Z,8.15
2023-05-12T05:21:14.839Z,7.72
2023-05-12T05:23:43.028Z,7.60
2023-05-12T05:26:10.938Z,7.40
2023-05-12T05:28:40.705Z,7.47
2023-05-12T05:31:08.664Z,7.47
2023-05-12T05:33:37.049Z,7.70
2023-05-12T05:36:06.310Z,8.07
2023-05-12T05:38:34.475Z,7.35
2023-05-12T05:41:02.335Z,7.32
2023-05-12T05:43:31.145Z,7.55
2023-05-12T05:46:00.657Z,7.88
2023-05-12T05:48:28.789Z,8.50
2023-05-12T05:50:56.677Z,8.32
2023-05-12T05:53:25.356Z,9.05
2023-05-12T05:55:53.243Z,7.63
2023-05-12T05:58:21.360Z,7.32
2023-05-12T06:00:49.357Z,7.43
2023-05-12T06:03:18.849Z,7.95
2023-05-12T06:05:46.822Z,7.80
2023-05-12T06:08:14.971Z,8.23
2023-05-12T06:10:42.864Z,8.65
2023-05-12T06:13:11.093Z,7.60
2023-05-12T06:15:38.994Z,7.90
2023-05-12T06:18:07.196Z,8.18
2023-05-12T06:20:36.634Z,7.18
2023-05-12T06:23:05.554Z,7.88
2023-05-12T06:25:33.983Z,7.63
2023-05-12T06:28:02.120Z,7.75
2023-05-12T06:30:30.085Z,7.38
2023-05-12T06:32:59.455Z,7.13
2023-05-12T06:35:27.378Z,8.00
2023-05-12T06:37:56.876Z,8.25
2023-05-12T06:40:24.732Z,7.60
2023-05-12T06:42:52.866Z,7.70
2023-05-12T06:45:23.319Z,7.22
2023-05-12T06:47:51.586Z,6.25
2023-05-12T06:50:19.668Z,6.22
2023-05-12T06:52:47.817Z,6.60
2023-05-12T06:55:19.817Z,7.00
2023-05-12T06:57:48.473Z,6.68
2023-05-12T07:00:16.961Z,6.28
2023-05-12T07:02:45.299Z,6.18
2023-05-12T07:05:13.310Z,6.55
2023-05-12T07:07:41.740Z,6.68
2023-05-12T07:10:10.317Z,6.32
2023-05-12T07:12:39.838Z,5.65
2023-05-12T07:15:09.583Z,5.93
2023-05-12T07:17:37.852Z,6.75
2023-05-12T07:20:07.106Z,6.95
2023-05-12T07:22:37.388Z,6.30
2023-05-12T07:25:07.908Z,6.03
2023-05-12T07:27:36.111Z,6.60
2023-05-12T07:30:06.217Z,6.60
2023-05-12T07:32:34.447Z,5.72
2023-05-12T07:35:03.589Z,6.55
2023-05-12T07:37:32.752Z,6.10
2023-05-12T07:40:00.691Z,6.25
2023-05-12T07:42:28.979Z,7.03
2023-05-12T07:44:56.861Z,6.65
2023-05-12T07:47:26.430Z,6.30
2023-05-12T07:49:54.406Z,6.60
2023-05-12T07:52:22.669Z,5.65
2023-05-12T07:54:50.707Z,5.68
2023-05-12T07:57:18.849Z,5.60
2023-05-12T07:59:46.733Z,5.55
2023-05-12T08:02:17.118Z,4.50
2023-05-12T08:04:46.392Z,4.50
2023-05-12T08:07:15.638Z,4.50
2023-05-12T08:09:43.775Z,4.25
2023-05-12T08:12:12.136Z,4.47
2023-05-12T08:14:39.974Z,4.38
2023-05-12T08:17:08.266Z,3.47
2023-05-12T08:19:36.167Z,4.00
2023-05-12T08:22:05.972Z,3.42
2023-05-12T08:24:33.857Z,4.47
2023-05-12T08:27:02.346Z,3.83
2023-05-12T08:29:30.263Z,3.70
2023-05-12T08:31:58.945Z,2.92
2023-05-12T08:34:27.332Z,3.22
2023-05-12T08:36:55.772Z,3.80
2023-05-12T08:39:25.074Z,3.65
2023-05-12T08:41:55.989Z,3.97
2023-05-12T08:44:24.258Z,3.03
2023-05-12T08:46:53.757Z,2.95
2023-05-12T08:49:22.397Z,2.65
2023-05-12T08:51:57.327Z,3.00
2023-05-12T08:54:28.902Z,2.80
2023-05-12T08:59:28.314Z,3.05
2023-05-12T09:01:56.743Z,3.13
2023-05-12T09:04:24.698Z,2.42
2023-05-12T09:06:55.546Z,2.65
2023-05-12T09:09:24.452Z,2.65
2023-05-12T09:11:57.879Z,1.98
2023-05-12T09:14:26.985Z,2.45
2023-05-12T09:16:59.650Z,2.47
2023-05-12T09:19:27.564Z,2.30
2023-05-12T09:21:57.086Z,2.13
2023-05-12T09:24:35.345Z,2.20
2023-05-12T09:27:05.886Z,2.08
2023-05-12T09:29:45.044Z,1.52
2023-05-12T09:32:16.342Z,1.83
2023-05-12T09:34:44.719Z,1.88
2023-05-12T09:37:15.216Z,1.80
2023-05-12T09:39:43.500Z,1.85
2023-05-12T09:42:13.750Z,1.73
2023-05-12T09:44:42.320Z,1.50
2023-05-12T09:47:10.981Z,1.65
2023-05-12T09:49:38.830Z,1.92
2023-05-12T09:52:07.266Z,1.67
2023-05-12T09:54:36.384Z,1.58
2023-05-12T09:57:05.779Z,2.28
2023-05-12T09:59:36.184Z,1.40
2023-05-12T10:02:06.956Z,1.50
2023-05-12T10:04:40.148Z,1.40
2023-05-12T10:07:11.504Z,1.73
2023-05-12T10:09:42.254Z,1.57
2023-05-12T10:12:10.879Z,1.65
2023-05-12T10:14:40.157Z,1.95
2023-05-12T10:17:11.061Z,1.40
2023-05-12T10:19:41.012Z,1.58
2023-05-12T10:22:11.624Z,1.80
2023-05-12T10:24:40.724Z,1.90
2023-05-12T10:27:09.087Z,2.10
2023-05-12T10:29:39.641Z,1.40
2023-05-12T10:32:07.836Z,1.90
2023-05-12T10:34:37.574Z,1.70
2023-05-12T10:37:08.764Z,1.40
2023-05-12T10:39:36.991Z,1.70
2023-05-12T10:42:08.313Z,1.58
2023-05-12T10:44:36.757Z,1.83
2023-05-12T10:47:15.411Z,1.70
2023-05-12T10:49:43.876Z,1.92
2023-05-12T10:52:13.227Z,1.80
2023-05-12T10:54:44.215Z,2.10
2023-05-12T10:57:18.835Z,1.60
2023-05-12T10:59:51.234Z,1.50
2023-05-12T11:02:26.312Z,1.58
2023-05-12T11:04:58.051Z,1.67
2023-05-12T11:07:28.109Z,1.83
2023-05-12T11:10:00.363Z,1.70
2023-05-12T11:12:32.451Z,2.00
2023-05-12T11:15:01.293Z,1.48
2023-05-12T11:17:30.940Z,1.73
2023-05-12T11:20:00.682Z,1.95
2023-05-12T11:22:28.889Z,1.92
2023-05-12T11:24:57.118Z,1.60
2023-05-12T11:27:25.826Z,1.80
2023-05-12T11:29:58.209Z,2.05
2023-05-12T11:32:26.557Z,2.30
2023-05-12T11:34:56.148Z,1.88
2023-05-12T11:37:24.569Z,1.50
2023-05-12T11:39:53.663Z,1.80
2023-05-12T11:42:25.124Z,1.90
2023-05-12T11:47:23.589Z,1.50
2023-05-12T11:49:53.117Z,1.65
2023-05-12T11:52:25.276Z,1.77
2023-05-12T11:54:54.533Z,1.70
2023-05-12T11:57:29.261Z,1.60
2023-05-12T11:59:58.798Z,1.48
2023-05-12T12:02:27.338Z,1.50
2023-05-12T12:04:55.563Z,1.60
2023-05-12T12:07:32.547Z,1.38
2023-05-12T12:10:02.049Z,1.90
2023-05-12T12:12:30.196Z,1.77
2023-05-12T12:15:00.222Z,1.48
2023-05-12T12:17:31.200Z,1.60
2023-05-12T12:19:59.263Z,2.38
2023-05-12T12:22:27.830Z,1.70
2023-05-12T12:24:57.163Z,1.45
2023-05-12T12:27:25.537Z,1.70
2023-05-12T12:29:53.400Z,1.50
2023-05-12T12:32:21.544Z,1.90
2023-05-12T12:34:49.611Z,2.00
2023-05-12T12:37:17.749Z,1.50
2023-05-12T12:39:47.618Z,1.90
2023-05-12T12:42:17.430Z,1.80
2023-05-12T12:44:47.891Z,1.98
2023-05-12T12:47:16.050Z,1.80
2023-05-12T12:49:44.834Z,2.33
2023-05-12T12:52:12.955Z,2.03
2023-05-12T12:54:40.869Z,1.83
2023-05-12T12:57:09.109Z,1.85
2023-05-12T12:59:38.292Z,1.98
2023-05-12T13:02:06.648Z,2.10
2023-05-12T13:04:34.540Z,2.33
2023-05-12T13:07:02.689Z,2.10
2023-05-12T13:09:30.585Z,1.80
2023-05-12T13:11:59.582Z,2.42
2023-05-12T13:14:27.474Z,2.13
2023-05-12T13:16:57.413Z,2.30
2023-05-12T13:19:25.353Z,2.33
2023-05-12T13:21:53.881Z,2.20
2023-05-12T13:24:21.766Z,2.28
2023-05-12T13:26:51.101Z,4.38
2023-05-12T13:29:19.198Z,2.83
2023-05-12T13:31:47.318Z,2.97
2023-05-12T13:34:16.585Z,2.00
2023-05-12T13:36:44.727Z,2.15
2023-05-12T13:39:12.944Z,2.08
2023-05-12T13:41:41.054Z,2.20
2023-05-12T13:44:09.476Z,2.08
2023-05-12T13:46:37.742Z,2.85
2023-05-12T13:49:05.645Z,2.70
2023-05-12T13:51:35.093Z,1.95
2023-05-12T13:54:02.970Z,2.10
2023-05-12T13:56:31.100Z,2.25
2023-05-12T13:58:58.952Z,2.72
2023-05-12T14:01:27.738Z,2.85
2023-05-12T14:03:56.015Z,2.53
2023-05-12T14:06:24.334Z,2.40
2023-05-12T14:08:53.579Z,2.25
2023-05-12T14:11:21.778Z,2.30
2023-05-12T14:13:49.630Z,2.85
2023-05-12T14:16:17.818Z,2.60
2023-05-12T14:18:45.965Z,2.35
2023-05-12T14:21:14.123Z,1.95
2023-05-12T14:23:42.262Z,2.22
2023-05-12T14:26:11.749Z,2.30
2023-05-12T14:28:39.662Z,2.20
2023-05-12T14:31:07.821Z,3.13
2023-05-12T14:33:35.962Z,3.03
2023-05-12T14:36:08.051Z,2.53
2023-05-12T14:38:36.669Z,1.90
2023-05-12T14:41:05.273Z,2.00
2023-05-12T14:43:34.515Z,1.90
2023-05-12T14:46:02.874Z,2.17
2023-05-12T14:48:30.821Z,2.17
2023-05-12T14:50:59.161Z,1.75
2023-05-12T14:53:27.282Z,1.70
2023-05-12T14:55:55.476Z,1.90
2023-05-12T14:58:24.060Z,2.00
2023-05-12T15:00:54.227Z,2.10
2023-05-12T15:03:22.381Z,1.80
2023-05-12T15:08:22.164Z,2.25
2023-05-12T15:10:50.361Z,2.15
2023-05-12T15:13:20.362Z,2.00
2023-05-12T15:15:50.249Z,1.80
2023-05-12T15:18:21.100Z,2.45
2023-05-12T15:20:49.298Z,1.95
2023-05-12T15:23:17.490Z,1.88
2023-05-12T15:25:45.750Z,2.22
2023-05-12T15:28:13.703Z,1.95
2023-05-12T15:30:42.042Z,2.47
2023-05-12T15:33:10.244Z,2.00
2023-05-12T15:35:40.779Z,2.05
2023-05-12T15:38:08.959Z,2.30
2023-05-12T15:40:37.149Z,2.30
2023-05-12T15:43:05.314Z,2.05
2023-05-12T15:45:37.133Z,1.70
2023-05-12T15:48:07.265Z,2.20
2023-05-12T15:53:06.883Z,2.90
2023-05-12T15:55:35.432Z,1.92
2023-05-12T15:58:04.201Z,2.15
2023-05-12T16:00:32.444Z,1.80
2023-05-12T16:03:01.714Z,2.00
2023-05-12T16:05:30.698Z,2.20
2023-05-12T16:07:58.920Z,2.30
2023-05-12T16:10:28.408Z,2.60
2023-05-12T16:12:56.534Z,2.50
2023-05-12T16:15:24.662Z,2.22
2023-05-12T16:17:52.561Z,2.47
2023-05-12T16:20:20.898Z,2.10
2023-05-12T16:22:51.131Z,2.45
2023-05-12T16:25:19.987Z,2.40
2023-05-12T16:27:49.514Z,2.33
2023-05-12T16:30:19.894Z,2.25
2023-05-12T16:32:48.339Z,2.22
2023-05-12T16:35:16.724Z,2.35
2023-05-12T16:37:44.601Z,2.40
2023-05-12T16:40:13.272Z,2.60
2023-05-12T16:42:41.650Z,2.58
2023-05-12T16:45:12.283Z,2.50
2023-05-12T16:47:40.294Z,2.60
2023-05-12T16:50:09.905Z,2.53
2023-05-12T16:52:37.785Z,2.45
2023-05-12T16:55:06.786Z,3.10
2023-05-12T16:57:34.944Z,2.92
2023-05-12T17:00:05.558Z,3.08
2023-05-12T17:02:34.832Z,4.22
2023-05-12T17:05:03.083Z,3.10
2023-05-12T17:07:31.035Z,3.83
2023-05-12T17:09:59.193Z,4.15
2023-05-12T17:12:27.069Z,3.47
2023-05-12T17:15:03.810Z,3.25
2023-05-12T17:17:36.278Z,4.55
2023-05-12T17:20:05.948Z,3.25
2023-05-12T17:22:36.967Z,3.40
2023-05-12T17:25:05.802Z,3.00
2023-05-12T17:27:33.673Z,3.53
2023-05-12T17:30:04.035Z,6.72
2023-05-12T17:32:32.064Z,4.13
2023-05-12T17:35:01.576Z,3.47
2023-05-12T17:37:30.264Z,3.45
2023-05-12T17:39:59.255Z,3.53
2023-05-12T17:42:29.843Z,3.58
2023-05-12T17:44:58.270Z,2.90
2023-05-12T17:47:26.396Z,3.88
2023-05-12T17:49:54.828Z,4.45
2023-05-12T17:52:24.041Z,3.55
2023-05-12T17:54:56.994Z,4.20
2023-05-12T17:57:24.874Z,4.65
2023-05-12T17:59:53.088Z,4.75
2023-05-12T18:02:21.044Z,5.88
2023-05-12T18:04:49.380Z,6.35
2023-05-12T18:07:17.442Z,5.85
2023-05-12T18:09:46.896Z,9.00
2023-05-12T18:12:15.886Z,7.28
2023-05-12T18:14:44.145Z,6.68
2023-05-12T18:17:12.116Z,5.57
2023-05-12T18:19:40.269Z,8.23
2023-05-12T18:22:08.242Z,5.88
2023-05-12T18:24:36.807Z,4.82
2023-05-12T18:27:06.769Z,5.90
2023-05-12T18:29:35.121Z,6.28
2023-05-12T18:32:03.011Z,6.70
2023-05-12T18:34:31.214Z,5.53
2023-05-12T18:36:59.243Z,5.93
2023-05-12T18:39:27.497Z,6.25
2023-05-12T18:41:55.698Z,4.90
2023-05-12T18:44:25.276Z,7.00
2023-05-12T18:46:53.273Z,4.78
2023-05-12T18:49:21.461Z,4.75
2023-05-12T18:51:49.403Z,5.63
2023-05-12T18:54:17.562Z,5.53
2023-05-12T18:56:47.199Z,5.03
2023-05-12T18:59:15.405Z,5.55
2023-05-12T19:01:44.903Z,6.20
2023-05-12T19:04:13.218Z,4.65
2023-05-12T19:06:41.722Z,5.60
2023-05-12T19:09:09.846Z,4.82
2023-05-12T19:11:37.704Z,4.18
2023-05-12T19:14:05.941Z,4.82
2023-05-12T19:16:35.181Z,5.20
2023-05-12T19:19:04.859Z,3.97
2023-05-12T19:21:33.546Z,4.53
2023-05-12T19:24:02.092Z,4.47
2023-05-12T19:26:29.985Z,5.15
2023-05-12T19:28:58.135Z,6.13
2023-05-12T19:31:26.074Z,5.15
2023-05-12T19:33:54.238Z,5.40
2023-05-12T19:36:23.543Z,6.88
2023-05-12T19:38:51.634Z,7.88
2023-05-12T19:41:19.526Z,7.18
2023-05-12T19:43:47.894Z,7.45
2023-05-12T19:46:15.935Z,7.13
2023-05-12T19:48:44.142Z,6.93
2023-05-12T19:51:12.120Z,6.72
2023-05-12T19:53:43.038Z,7.18
2023-05-12T19:56:11.234Z,7.38
2023-05-12T19:58:39.404Z,6.97
2023-05-12T20:01:07.316Z,7.05
2023-05-12T20:03:35.562Z,7.47
2023-05-12T20:06:03.466Z,6.65
2023-05-12T20:08:31.590Z,6.55
2023-05-12T20:11:00.825Z,6.25
2023-05-12T20:13:29.114Z,6.75
2023-05-12T20:15:57.381Z,6.05
2023-05-12T20:18:25.906Z,6.68
2023-05-12T20:20:53.751Z,7.22
2023-05-12T20:23:21.897Z,6.82
2023-05-12T20:25:49.759Z,7.18
2023-05-12T20:28:21.265Z,7.22
2023-05-12T20:30:49.171Z,6.57
2023-05-12T20:33:17.363Z,6.35
2023-05-12T20:35:45.564Z,5.88
2023-05-12T20:38:14.186Z,6.60
2023-05-12T20:40:42.107Z,6.45
2023-05-12T20:43:10.297Z,6.05
2023-05-12T20:45:39.542Z,5.75
2023-05-12T20:48:07.826Z,5.68
2023-05-12T20:50:35.769Z,5.95
2023-05-12T20:53:04.488Z,5.75
2023-05-12T20:55:33.717Z,6.13
2023-05-12T20:58:02.038Z,6.25
2023-05-12T21:00:29.909Z,6.50
2023-05-12T21:03:00.035Z,6.70
2023-05-12T21:05:27.913Z,5.50
2023-05-12T21:07:56.138Z,5.50
2023-05-12T21:10:24.257Z,5.97
2023-05-12T21:12:52.583Z,6.10
2023-05-12T21:15:20.530Z,6.15
2023-05-12T21:17:48.703Z,6.35
2023-05-12T21:20:18.037Z,6.10
2023-05-12T21:22:46.553Z,5.57
2023-05-12T21:25:14.397Z,6.03
2023-05-12T21:27:42.837Z,5.70
2023-05-12T21:30:12.130Z,5.40
2023-05-12T21:32:40.344Z,5.97
2023-05-12T21:35:08.954Z,6.28
2023-05-12T21:37:38.634Z,5.95
2023-05-12T21:40:07.796Z,6.22
2023-05-12T21:42:35.914Z,5.55
2023-05-12T21:45:03.885Z,6.40
2023-05-12T21:47:32.070Z,6.53
2023-05-12T21:50:00.002Z,5.57
2023-05-12T21:52:28.303Z,6.47
2023-05-12T21:54:57.557Z,7.15
2023-05-12T21:57:25.551Z,6.70
2023-05-12T21:59:53.992Z,6.20
2023-05-12T22:02:26.209Z,6.40
2023-05-12T22:05:01.828Z,6.18
2023-05-12T22:07:30.041Z,6.65
2023-05-12T22:09:59.485Z,6.68
2023-05-12T22:12:27.499Z,7.93
2023-05-12T22:14:55.633Z,13.70
2023-05-12T22:17:23.616Z,5.90
2023-05-12T22:19:53.972Z,7.18
2023-05-12T22:22:21.893Z,5.85
2023-05-12T22:24:50.008Z,7.38
2023-05-12T22:27:22.068Z,6.60
2023-05-12T22:29:50.357Z,5.72
2023-05-12T22:32:18.320Z,5.80
2023-05-12T22:34:46.481Z,6.05
2023-05-12T22:37:14.525Z,7.10
2023-05-12T22:39:42.677Z,6.75
2023-05-12T22:42:10.544Z,6.75
2023-05-12T22:44:40.021Z,6.93
2023-05-12T22:47:08.469Z,6.25
2023-05-12T22:49:36.761Z,6.40
2023-05-12T22:52:05.749Z,6.55
2023-05-12T22:54:33.875Z,7.00
2023-05-12T22:57:01.728Z,7.25
2023-05-12T22:59:29.896Z,7.30
2023-05-12T23:01:59.106Z,6.88
2023-05-12T23:04:27.240Z,6.95
2023-05-12T23:06:55.190Z,6.88
2023-05-12T23:09:23.306Z,6.60
2023-05-12T23:11:51.902Z,7.65
2023-05-12T23:14:20.423Z,7.47
2023-05-12T23:16:48.506Z,6.90
2023-05-12T23:19:17.954Z,7.43
2023-05-12T23:21:45.915Z,7.40
2023-05-12T23:24:14.026Z,6.57
2023-05-12T23:26:41.930Z,7.22
2023-05-12T23:29:10.053Z,7.38
2023-05-12T23:31:37.939Z,7.47
2023-05-12T23:34:06.057Z,7.53
2023-05-12T23:36:35.380Z,7.75
2023-05-12T23:39:04.096Z,6.65
2023-05-12T23:41:33.887Z,7.70
2023-05-12T23:44:02.245Z,7.70
2023-05-12T23:46:30.195Z,9.70
2023-05-12T23:48:58.345Z,9.50
2023-05-12T23:51:26.227Z,7.35
2023-05-12T23:53:55.700Z,8.32
2023-05-12T23:56:23.659Z,8.25
2023-05-12T23:58:51.916Z,8.60
